Time;durP1;ratioP1;P1;durP2;ratioP2;P2;SDS_P1;SDS_P2;PMS_P1;PMS_P2;Temp;Humidity;BMP_temperature;BMP_pressure;BME280_temperature;BME280_humidity;BME280_pressure;Samples;Min_cycle;Max_cycle;Signal;HPM_P1;HPM_P2
2023/02/18 00:01:44;;;;;;;73.17;12.60;;;12.00;99.90;;;;;;4993106;28;20214;-86
2023/02/18 00:05:01;;;;;;;71.88;11.13;;;12.00;99.90;;;;;;4992945;28;20241;-87
2023/02/18 00:08:27;;;;;;;70.82;11.20;;;12.00;99.90;;;;;;4973151;28;20271;-87
2023/02/18 00:10:53;;;;;;;72.72;13.07;;;11.90;99.90;;;;;;5007286;28;20185;-85
2023/02/18 00:13:22;;;;;;;72.18;13.10;;;11.90;99.90;;;;;;4992701;28;20186;-86
2023/02/18 00:15:48;;;;;;;71.03;11.80;;;11.90;99.90;;;;;;4992489;28;20170;-86
2023/02/18 00:18:31;;;;;;;72.72;12.65;;;11.90;99.90;;;;;;4992577;28;20167;-86
2023/02/18 00:21:23;;;;;;;70.38;11.00;;;11.90;99.90;;;;;;4993450;28;20169;-87
2023/02/18 00:23:58;;;;;;;70.53;10.07;;;11.90;99.90;;;;;;4992112;28;20179;-86
2023/02/18 00:26:45;;;;;;;71.18;11.93;;;11.90;99.90;;;;;;4992360;28;20209;-86
2023/02/18 00:29:26;;;;;;;74.93;13.88;;;12.00;99.90;;;;;;4992624;28;20182;-86
2023/02/18 00:34:44;;;;;;;73.60;11.77;;;11.90;99.90;;;;;;5012949;28;20277;-87
2023/02/18 00:37:18;;;;;;;74.68;13.55;;;11.90;99.90;;;;;;5013061;28;20220;-87
2023/02/18 00:39:44;;;;;;;71.05;13.00;;;11.90;99.90;;;;;;5014398;28;20636;-86
2023/02/18 00:42:13;;;;;;;72.75;11.07;;;11.90;99.90;;;;;;5012976;28;20195;-87
2023/02/18 00:44:46;;;;;;;71.60;12.93;;;11.90;99.90;;;;;;4996496;28;20159;-87
2023/02/18 00:47:25;;;;;;;;;;;;;;;;;;;;;
2023/02/18 00:49:51;;;;;;;71.43;12.40;;;11.90;99.90;;;;;;5014111;28;20250;-86
2023/02/18 00:52:17;;;;;;;70.53;11.77;;;11.90;99.90;;;;;;5013017;28;20195;-86
2023/02/18 00:54:53;;;;;;;76.50;11.60;;;11.90;99.90;;;;;;5013598;28;20194;-87
2023/02/18 00:57:19;;;;;;;72.88;11.70;;;11.90;99.90;;;;;;4996094;28;20189;-87
2023/02/18 01:00:08;;;;;;;70.00;11.25;;;11.90;99.90;;;;;;5013076;28;20173;-87
2023/02/18 01:02:37;;;;;;;70.07;11.40;;;11.90;99.90;;;;;;5012111;28;20289;-86
2023/02/18 01:05:06;;;;;;;77.57;11.75;;;11.90;99.90;;;;;;4994691;28;20178;-86
2023/02/18 01:07:38;;;;;;;71.22;10.73;;;11.90;99.90;;;;;;4994883;28;20177;-87
2023/02/18 01:10:11;;;;;;;70.88;9.55;;;11.80;99.90;;;;;;4995448;28;20166;-87
2023/02/18 01:12:57;;;;;;;71.78;10.00;;;11.80;99.90;;;;;;4996103;28;20197;-86
2023/02/18 01:15:38;;;;;;;70.95;10.32;;;11.80;99.90;;;;;;4995660;28;20182;-86
2023/02/18 01:18:07;;;;;;;70.43;10.13;;;11.80;99.90;;;;;;4995974;28;20254;-87
2023/02/18 01:20:35;;;;;;;68.93;9.38;;;11.80;99.90;;;;;;4996312;28;20205;-86
2023/02/18 01:23:14;;;;;;;71.03;10.75;;;11.80;99.90;;;;;;4995490;28;20194;-86
2023/02/18 01:25:40;;;;;;;69.60;9.40;;;11.80;99.90;;;;;;4994912;28;20182;-86
2023/02/18 01:28:23;;;;;;;73.72;9.77;;;11.70;99.90;;;;;;5012989;28;20190;-87
2023/02/18 01:30:49;;;;;;;73.15;12.50;;;11.70;99.90;;;;;;4995758;28;20167;-87
2023/02/18 01:33:27;;;;;;;71.10;11.47;;;11.80;99.90;;;;;;4995732;28;20240;-86
2023/02/18 01:35:53;;;;;;;77.28;11.90;;;11.70;99.90;;;;;;4994945;28;20409;-86
2023/02/18 01:38:31;;;;;;;71.17;10.83;;;11.70;99.90;;;;;;5012775;28;20230;-87
2023/02/18 01:41:05;;;;;;;71.85;11.00;;;11.70;99.90;;;;;;5012125;28;20892;-86
2023/02/18 01:43:32;;;;;;;71.75;10.40;;;11.70;99.90;;;;;;5011916;28;20197;-86
2023/02/18 01:46:22;;;;;;;75.13;11.65;;;11.70;99.90;;;;;;5011891;28;20238;-86
2023/02/18 01:48:58;;;;;;;70.75;10.40;;;11.70;99.90;;;;;;5011670;28;20215;-87
2023/02/18 01:51:49;;;;;;;73.40;10.30;;;11.70;99.90;;;;;;4995451;28;20214;-86
2023/02/18 01:54:34;;;;;;;71.60;10.05;;;11.70;99.90;;;;;;4995086;28;20234;-86
2023/02/18 01:57:06;;;;;;;70.50;10.20;;;11.70;99.90;;;;;;4993935;28;20172;-86
2023/02/18 01:59:46;;;;;;;72.47;11.02;;;11.70;99.90;;;;;;5012491;28;20638;-86
2023/02/18 02:02:20;;;;;;;70.72;10.35;;;11.70;99.90;;;;;;5011716;28;20178;-86
2023/02/18 02:04:49;;;;;;;71.55;10.43;;;11.70;99.90;;;;;;5012109;28;20589;-87
2023/02/18 02:07:18;;;;;;;74.15;11.07;;;11.70;99.90;;;;;;5011911;28;20163;-86
2023/02/18 02:09:50;;;;;;;70.07;9.40;;;11.70;99.90;;;;;;4995028;28;20169;-86
2023/02/18 02:12:34;;;;;;;70.32;9.65;;;11.70;99.90;;;;;;4994665;28;20221;-86
2023/02/18 02:15:34;;;;;;;70.50;9.27;;;11.60;99.90;;;;;;4994243;28;20220;-86
2023/02/18 02:18:19;;;;;;;70.97;9.10;;;11.60;99.90;;;;;;4995150;28;20562;-86
2023/02/18 02:20:53;;;;;;;71.57;9.80;;;11.70;99.90;;;;;;4995275;28;20162;-85
2023/02/18 02:23:19;;;;;;;69.47;9.10;;;11.60;99.90;;;;;;4994575;28;20170;-86
2023/02/18 02:26:35;;;;;;;70.18;9.40;;;11.70;99.90;;;;;;4994488;28;20555;-86
2023/02/18 02:29:42;;;;;;;70.70;7.90;;;11.70;99.90;;;;;;4952298;29;20173;-86
2023/02/18 02:32:14;;;;;;;69.60;7.97;;;11.70;99.90;;;;;;4994800;28;20194;-86
2023/02/18 02:35:13;;;;;;;68.50;8.52;;;11.70;99.90;;;;;;4993626;28;20214;-86
2023/02/18 02:37:46;;;;;;;70.38;8.77;;;11.70;99.90;;;;;;4981458;28;20185;-86
2023/02/18 02:40:34;;;;;;;69.45;8.57;;;11.70;99.90;;;;;;4994024;28;20168;-86
2023/02/18 02:43:52;;;;;;;70.03;9.77;;;11.70;99.90;;;;;;5011445;28;20182;-86
2023/02/18 02:46:42;;;;;;;68.40;7.88;;;11.70;99.90;;;;;;4935115;29;20188;-86
2023/02/18 02:49:46;;;;;;;68.70;8.10;;;11.60;99.90;;;;;;4994160;28;20167;-85
2023/02/18 02:52:47;;;;;;;68.95;8.85;;;11.60;99.90;;;;;;4993882;28;20201;-87
2023/02/18 02:55:16;;;;;;;68.35;8.10;;;11.60;99.90;;;;;;5007878;28;20211;-87
2023/02/18 02:57:45;;;;;;;67.72;8.82;;;11.70;99.90;;;;;;4994282;28;20166;-86
2023/02/18 03:00:16;;;;;;;67.20;8.18;;;11.70;99.90;;;;;;4993984;28;20773;-87
2023/02/18 03:02:57;;;;;;;67.22;8.18;;;11.70;99.90;;;;;;4994235;28;20174;-87
2023/02/18 03:05:54;;;;;;;67.95;8.73;;;11.70;99.90;;;;;;4993590;28;20185;-86
2023/02/18 03:08:27;;;;;;;67.47;9.85;;;11.60;99.90;;;;;;4993800;28;20194;-86
2023/02/18 03:11:09;;;;;;;67.65;9.00;;;11.70;99.90;;;;;;4994155;28;20170;-87
2023/02/18 03:14:19;;;;;;;66.70;9.05;;;11.70;99.90;;;;;;4994097;28;20196;-86
2023/02/18 03:16:49;;;;;;;66.25;9.15;;;11.70;99.90;;;;;;4993415;28;20219;-87
2023/02/18 03:19:30;;;;;;;66.20;7.85;;;11.70;99.90;;;;;;4993611;28;20189;-87
2023/02/18 03:22:11;;;;;;;68.28;11.82;;;11.70;99.90;;;;;;5010663;28;20205;-86
2023/02/18 03:24:43;;;;;;;67.25;10.20;;;11.70;99.90;;;;;;5010648;28;20151;-86
2023/02/18 03:27:23;;;;;;;67.65;9.60;;;11.60;99.90;;;;;;5010854;28;20157;-87
2023/02/18 03:30:00;;;;;;;66.95;10.23;;;11.70;99.90;;;;;;4993703;28;20257;-86
2023/02/18 03:32:39;;;;;;;67.43;10.35;;;11.70;99.90;;;;;;5011327;28;20539;-87
2023/02/18 03:35:13;;;;;;;66.25;9.07;;;11.70;99.90;;;;;;4993669;28;20190;-86
2023/02/18 03:37:45;;;;;;;66.63;9.13;;;11.70;99.90;;;;;;4993387;28;20160;-86
2023/02/18 03:40:16;;;;;;;66.18;10.05;;;11.70;99.90;;;;;;5010972;28;20135;-87
2023/02/18 03:42:45;;;;;;;65.72;7.65;;;11.70;99.90;;;;;;4992243;28;20194;-86
2023/02/18 03:45:12;;;;;;;65.68;8.05;;;11.70;99.90;;;;;;4994140;28;20201;-86
2023/02/18 03:47:38;;;;;;;65.90;8.02;;;11.70;99.90;;;;;;4993337;28;20169;-86
2023/02/18 03:50:06;;;;;;;65.77;8.80;;;11.70;99.90;;;;;;5067044;23;20228;-84
2023/02/18 03:52:35;;;;;;;65.88;7.53;;;11.70;99.90;;;;;;4996375;28;20434;-84
2023/02/18 03:55:04;;;;;;;65.75;7.22;;;11.80;99.90;;;;;;4998343;28;20199;-84
2023/02/18 03:57:29;;;;;;;64.63;5.43;;;11.80;99.90;;;;;;4998825;28;20163;-83
2023/02/18 03:59:55;;;;;;;65.60;6.00;;;11.80;99.90;;;;;;4998841;28;20170;-84
2023/02/18 04:02:21;;;;;;;64.90;5.43;;;11.80;99.90;;;;;;4997342;28;20520;-84
2023/02/18 04:04:46;;;;;;;65.80;5.43;;;11.80;99.90;;;;;;4998296;28;20166;-84
2023/02/18 04:07:12;;;;;;;64.37;6.07;;;11.80;99.90;;;;;;4998477;28;20198;-84
2023/02/18 04:09:38;;;;;;;64.47;5.57;;;11.70;99.90;;;;;;4997396;28;20183;-83
2023/02/18 04:12:07;;;;;;;64.00;5.50;;;11.70;99.90;;;;;;5000332;28;20592;-84
2023/02/18 04:14:32;;;;;;;65.43;7.50;;;11.70;99.90;;;;;;5002286;28;20186;-82
2023/02/18 04:17:00;;;;;;;66.77;11.87;;;11.70;99.90;;;;;;5002368;28;20661;-83
2023/02/18 04:19:25;;;;;;;63.88;4.70;;;11.80;99.90;;;;;;5001240;28;20584;-83
2023/02/18 04:21:51;;;;;;;63.70;4.90;;;11.80;99.90;;;;;;5002263;28;20189;-83
2023/02/18 04:24:17;;;;;;;64.50;4.27;;;11.80;99.90;;;;;;5017295;28;20202;-83
2023/02/18 04:26:42;;;;;;;64.20;4.43;;;11.80;99.90;;;;;;5001824;28;20171;-83
2023/02/18 04:29:11;;;;;;;64.40;4.90;;;11.80;99.90;;;;;;5000740;28;20177;-83
2023/02/18 04:31:37;;;;;;;63.92;4.80;;;11.80;99.90;;;;;;5001949;28;20641;-83
2023/02/18 04:34:02;;;;;;;63.87;4.77;;;11.80;99.90;;;;;;5001383;28;20209;-83
2023/02/18 04:36:28;;;;;;;63.87;4.23;;;11.70;99.90;;;;;;5000101;28;20516;-83
2023/02/18 04:38:54;;;;;;;63.87;5.00;;;11.80;99.90;;;;;;5001531;28;20225;-83
2023/02/18 04:41:19;;;;;;;63.80;4.30;;;11.80;99.90;;;;;;5000388;28;20277;-83
2023/02/18 04:43:45;;;;;;;63.80;4.70;;;11.80;99.90;;;;;;5001594;28;20224;-83
2023/02/18 04:46:11;;;;;;;63.80;5.10;;;11.80;99.90;;;;;;5000174;28;20175;-83
2023/02/18 04:48:36;;;;;;;63.57;4.20;;;11.70;99.90;;;;;;5001901;28;20186;-83
2023/02/18 04:51:03;;;;;;;63.80;4.63;;;11.70;99.90;;;;;;4999212;28;20194;-83
2023/02/18 04:53:29;;;;;;;64.05;5.60;;;11.70;99.90;;;;;;5001642;28;20686;-83
2023/02/18 04:55:54;;;;;;;63.57;3.93;;;11.70;99.90;;;;;;5001515;28;20173;-83
2023/02/18 04:58:20;;;;;;;63.73;4.67;;;11.70;99.90;;;;;;5000221;28;20190;-83
2023/02/18 05:00:46;;;;;;;63.53;5.15;;;11.80;99.90;;;;;;4999843;28;20225;-83
2023/02/18 05:03:13;;;;;;;64.50;6.90;;;11.70;99.90;;;;;;4999665;28;20174;-83
2023/02/18 05:05:40;;;;;;;64.57;5.43;;;11.70;99.90;;;;;;4999861;28;20170;-83
2023/02/18 05:08:07;;;;;;;65.35;8.70;;;11.70;99.90;;;;;;4999934;28;20170;-83
2023/02/18 05:10:33;;;;;;;66.05;10.50;;;11.60;99.90;;;;;;5000291;28;20221;-84
2023/02/18 05:12:59;;;;;;;66.63;11.20;;;11.50;99.90;;;;;;4999984;28;20578;-83
2023/02/18 05:15:25;;;;;;;65.97;10.10;;;11.60;99.90;;;;;;4999674;28;20166;-84
2023/02/18 05:17:51;;;;;;;66.63;12.40;;;11.50;99.90;;;;;;5000937;28;20169;-83
2023/02/18 05:20:16;;;;;;;66.72;11.93;;;11.50;99.90;;;;;;4999351;28;20174;-84
2023/02/18 05:22:42;;;;;;;66.67;12.93;;;11.50;99.90;;;;;;4999798;28;20213;-84
2023/02/18 05:25:08;;;;;;;67.37;12.60;;;11.40;99.90;;;;;;4999761;28;20258;-83
2023/02/18 05:27:34;;;;;;;66.20;10.80;;;11.40;99.90;;;;;;5001036;28;20174;-83
2023/02/18 05:29:59;;;;;;;66.17;11.47;;;11.40;99.90;;;;;;4998974;28;20174;-83
2023/02/18 05:32:25;;;;;;;67.17;13.57;;;11.40;99.90;;;;;;5000078;28;20202;-84
2023/02/18 05:34:51;;;;;;;65.97;10.30;;;11.40;99.90;;;;;;4999657;28;20186;-84
2023/02/18 05:37:17;;;;;;;66.30;11.30;;;11.30;99.90;;;;;;5000276;28;20174;-84
2023/02/18 05:39:43;;;;;;;66.72;11.32;;;11.40;99.90;;;;;;4999927;28;20158;-84
2023/02/18 05:42:10;;;;;;;66.70;12.60;;;11.40;99.90;;;;;;5000412;28;20190;-84
2023/02/18 05:44:35;;;;;;;67.70;13.43;;;11.40;99.90;;;;;;5000008;28;20181;-82
2023/02/18 05:47:05;;;;;;;68.57;13.27;;;11.40;99.90;;;;;;5000131;28;20203;-84
2023/02/18 05:49:32;;;;;;;66.72;11.57;;;11.40;99.90;;;;;;4999418;28;20178;-83
2023/02/18 05:51:58;;;;;;;66.45;10.90;;;11.30;99.90;;;;;;4999146;28;20187;-82
2023/02/18 05:54:24;;;;;;;66.88;12.10;;;11.40;99.90;;;;;;4999880;28;20310;-83
2023/02/18 05:56:50;;;;;;;66.18;9.35;;;11.30;99.90;;;;;;4999821;28;20167;-83
2023/02/18 05:59:16;;;;;;;65.95;10.38;;;11.30;99.90;;;;;;4999778;28;20180;-83
2023/02/18 06:01:42;;;;;;;70.07;11.87;;;11.30;99.90;;;;;;4999799;28;20190;-83
2023/02/18 06:04:09;;;;;;;67.07;11.48;;;11.30;99.90;;;;;;4997590;28;20423;-83
2023/02/18 06:06:34;;;;;;;68.07;14.80;;;11.30;99.90;;;;;;4999375;28;20707;-84
2023/02/18 06:09:01;;;;;;;67.77;15.47;;;11.30;99.90;;;;;;5000020;28;20219;-84
2023/02/18 06:11:26;;;;;;;67.53;14.48;;;11.40;99.90;;;;;;4999964;28;20214;-83
2023/02/18 06:13:52;;;;;;;71.33;22.30;;;11.40;99.90;;;;;;4999439;28;20257;-83
2023/02/18 06:16:18;;;;;;;68.20;16.00;;;11.30;1.00;;;;;;4999657;28;20190;-83
2023/02/18 06:18:43;;;;;;;68.60;16.87;;;11.30;1.00;;;;;;5000537;28;20167;-83
2023/02/18 06:21:09;;;;;;;68.50;17.60;;;11.40;1.00;;;;;;5000107;28;20214;-83
2023/02/18 06:23:35;;;;;;;68.20;16.93;;;11.40;1.00;;;;;;4998494;28;20179;-84
2023/02/18 06:26:00;;;;;;;68.00;16.20;;;11.30;1.00;;;;;;4999931;28;20170;-83
2023/02/18 06:28:26;;;;;;;68.07;16.67;;;11.40;25.80;;;;;;4999662;28;20201;-84
2023/02/18 06:30:55;;;;;;;67.43;15.37;;;11.40;99.90;;;;;;4999202;28;20413;-82
2023/02/18 06:33:20;;;;;;;68.28;17.05;;;11.40;99.90;;;;;;4998890;28;20187;-83
2023/02/18 06:36:01;;;;;;;67.03;13.03;;;11.30;99.90;;;;;;4997910;28;20221;-83
2023/02/18 06:38:27;;;;;;;67.07;12.82;;;11.40;1.00;;;;;;4998691;28;20150;-82
2023/02/18 06:40:53;;;;;;;65.93;11.40;;;11.40;1.00;;;;;;4998794;28;20643;-82
2023/02/18 06:43:19;;;;;;;66.00;9.93;;;11.40;99.90;;;;;;4998932;28;20615;-82
2023/02/18 06:45:45;;;;;;;66.95;9.93;;;11.40;99.90;;;;;;4998867;28;20405;-82
2023/02/18 06:48:11;;;;;;;65.30;7.53;;;11.40;99.90;;;;;;4997111;28;20570;-82
2023/02/18 06:50:37;;;;;;;64.25;5.07;;;11.40;73.20;;;;;;4999219;28;20162;-82
2023/02/18 06:53:03;;;;;;;63.40;4.07;;;11.50;1.00;;;;;;4997553;28;20189;-82
2023/02/18 06:55:28;;;;;;;64.07;5.35;;;11.50;1.00;;;;;;4998599;28;20154;-83
2023/02/18 06:57:54;;;;;;;63.80;4.73;;;11.50;99.90;;;;;;4998173;28;20181;-83
2023/02/18 07:00:21;;;;;;;63.30;3.70;;;11.40;99.90;;;;;;4999400;28;20244;-82
2023/02/18 07:02:47;;;;;;;64.10;5.68;;;11.40;99.90;;;;;;4999089;28;20182;-82
2023/02/18 07:05:13;;;;;;;63.37;3.53;;;11.40;99.90;;;;;;4997881;28;20198;-82
2023/02/18 07:07:38;;;;;;;64.10;3.30;;;11.50;1.00;;;;;;4997384;28;20217;-83
2023/02/18 07:10:05;;;;;;;63.07;3.10;;;11.50;1.00;;;;;;4999943;28;20201;-83
2023/02/18 07:12:31;;;;;;;63.15;3.53;;;11.50;1.00;;;;;;4999027;28;20197;-82
2023/02/18 07:14:59;;;;;;;63.27;3.77;;;11.50;99.90;;;;;;4997836;28;20666;-83
2023/02/18 07:17:24;;;;;;;62.83;3.10;;;11.50;99.90;;;;;;4998940;28;20634;-82
2023/02/18 07:19:50;;;;;;;63.17;3.83;;;11.50;45.50;;;;;;4997853;28;20229;-83
2023/02/18 07:22:18;;;;;;;62.60;3.40;;;11.50;1.00;;;;;;4999854;28;20234;-83
2023/02/18 07:24:44;;;;;;;63.28;4.40;;;11.50;1.00;;;;;;4999703;28;20205;-83
2023/02/18 07:27:13;;;;;;;62.67;3.70;;;11.50;1.00;;;;;;4997543;28;20174;-83
2023/02/18 07:29:38;;;;;;;64.07;6.00;;;11.50;1.00;;;;;;4999095;28;20162;-83
2023/02/18 07:32:04;;;;;;;62.67;3.23;;;11.50;99.90;;;;;;4997923;28;20661;-82
2023/02/18 07:34:30;;;;;;;63.70;4.00;;;11.50;99.90;;;;;;4998677;28;20274;-83
2023/02/18 07:36:56;;;;;;;63.57;4.07;;;11.50;99.90;;;;;;4998026;28;20262;-83
2023/02/18 07:39:21;;;;;;;63.20;4.43;;;11.60;99.90;;;;;;4999398;28;20174;-83
2023/02/18 07:41:47;;;;;;;63.17;3.93;;;11.60;99.90;;;;;;4997992;28;20186;-83
2023/02/18 07:44:18;;;;;;;63.50;4.33;;;11.70;99.90;;;;;;4999618;28;20167;-83
2023/02/18 07:46:44;;;;;;;63.60;4.43;;;11.60;56.20;;;;;;4998080;28;20230;-82
2023/02/18 07:49:10;;;;;;;63.40;3.97;;;11.60;99.90;;;;;;4997746;28;20186;-83
2023/02/18 07:51:37;;;;;;;65.20;3.50;;;11.60;99.90;;;;;;4998312;28;20182;-83
2023/02/18 07:54:06;;;;;;;64.40;3.40;;;11.60;99.90;;;;;;4999030;28;20179;-83
2023/02/18 07:56:47;;;;;;;64.47;3.30;;;11.60;99.90;;;;;;4997438;28;20173;-83
2023/02/18 07:59:13;;;;;;;63.50;4.07;;;11.70;99.90;;;;;;4999495;28;20595;-83
2023/02/18 08:01:40;;;;;;;63.55;3.92;;;11.60;99.90;;;;;;4998932;28;20186;-84
2023/02/18 08:04:06;;;;;;;64.50;3.85;;;11.60;99.90;;;;;;4998365;28;20167;-83
2023/02/18 08:06:44;;;;;;;63.53;3.70;;;11.60;99.90;;;;;;4997310;28;20170;-85
2023/02/18 08:09:11;;;;;;;64.65;3.45;;;11.60;99.90;;;;;;4997252;28;20270;-83
2023/02/18 08:11:37;;;;;;;63.65;4.22;;;11.50;99.90;;;;;;4998216;28;20191;-83
2023/02/18 08:14:07;;;;;;;63.55;3.40;;;11.50;99.90;;;;;;4997309;28;20202;-83
2023/02/18 08:16:35;;;;;;;65.75;5.78;;;11.40;99.90;;;;;;4999607;28;20158;-83
2023/02/18 08:19:05;;;;;;;64.45;4.35;;;11.40;99.90;;;;;;4998278;28;20175;-83
2023/02/18 08:21:36;;;;;;;64.68;4.03;;;11.30;99.90;;;;;;4997479;28;20197;-83
2023/02/18 08:24:06;;;;;;;64.55;4.28;;;11.30;99.90;;;;;;4997923;28;20143;-83
2023/02/18 08:26:32;;;;;;;66.20;4.60;;;11.30;99.90;;;;;;4997371;28;20175;-83
2023/02/18 08:28:58;;;;;;;64.97;4.60;;;11.30;99.90;;;;;;4998646;28;20666;-83
2023/02/18 08:31:26;;;;;;;66.63;8.50;;;11.30;99.90;;;;;;4998399;28;20195;-83
2023/02/18 08:33:55;;;;;;;67.05;4.45;;;11.20;99.90;;;;;;4996888;28;20277;-83
2023/02/18 08:36:33;;;;;;;72.47;11.43;;;11.20;99.90;;;;;;4997191;28;20217;-83
2023/02/18 08:38:59;;;;;;;69.38;4.70;;;11.20;99.90;;;;;;4997708;28;20618;-82
2023/02/18 08:41:25;;;;;;;67.20;3.80;;;11.30;99.90;;;;;;4999022;28;20273;-82
2023/02/18 08:43:50;;;;;;;67.13;4.33;;;11.20;99.90;;;;;;4996902;28;20449;-82
2023/02/18 08:46:16;;;;;;;71.43;9.87;;;11.20;99.90;;;;;;4998751;28;20190;-84
2023/02/18 08:48:43;;;;;;;65.75;4.72;;;11.20;99.90;;;;;;4997522;28;20684;-83
2023/02/18 08:51:18;;;;;;;66.85;4.28;;;11.20;99.90;;;;;;4997663;28;20182;-82
2023/02/18 08:53:45;;;;;;;65.82;4.35;;;11.30;99.90;;;;;;4997243;28;20629;-83
2023/02/18 08:56:14;;;;;;;67.25;4.70;;;11.30;99.90;;;;;;4997120;28;20171;-83
2023/02/18 08:58:40;;;;;;;67.88;4.00;;;11.30;99.90;;;;;;4999895;28;20170;-83
2023/02/18 09:01:08;;;;;;;65.45;4.82;;;11.30;99.90;;;;;;5001899;28;20692;-82
2023/02/18 09:03:34;;;;;;;65.60;4.50;;;11.30;99.90;;;;;;5000798;28;20178;-82
2023/02/18 09:06:00;;;;;;;68.50;4.45;;;11.30;99.90;;;;;;5000588;28;20232;-83
2023/02/18 09:08:27;;;;;;;69.90;4.03;;;11.30;99.90;;;;;;5000292;28;20187;-82
2023/02/18 09:11:00;;;;;;;68.32;4.95;;;11.30;99.90;;;;;;5000944;28;20228;-83
2023/02/18 09:13:26;;;;;;;67.95;4.38;;;11.30;99.90;;;;;;5000042;28;20190;-83
2023/02/18 09:16:00;;;;;;;69.50;4.93;;;11.30;99.90;;;;;;4999835;28;20253;-82
2023/02/18 09:18:26;;;;;;;68.45;4.60;;;11.30;99.90;;;;;;4999763;28;20178;-83
2023/02/18 09:20:55;;;;;;;66.77;4.37;;;11.40;99.90;;;;;;4999207;28;20175;-82
2023/02/18 09:23:31;;;;;;;66.28;3.97;;;11.40;99.90;;;;;;5000274;28;20894;-83
2023/02/18 09:25:57;;;;;;;70.00;4.70;;;11.40;99.90;;;;;;5001330;28;20157;-82
2023/02/18 09:28:23;;;;;;;68.57;4.80;;;11.40;99.90;;;;;;4999920;28;20198;-83
2023/02/18 09:30:49;;;;;;;69.00;4.20;;;11.40;99.90;;;;;;5000802;28;20174;-82
2023/02/18 09:33:16;;;;;;;68.07;3.83;;;11.40;99.90;;;;;;5016172;28;20235;-82
2023/02/18 09:35:43;;;;;;;66.78;3.92;;;11.40;99.90;;;;;;5001024;28;20474;-81
2023/02/18 09:38:11;;;;;;;65.78;4.03;;;11.40;99.90;;;;;;5000354;28;20167;-82
2023/02/18 09:40:42;;;;;;;69.88;4.25;;;11.40;99.90;;;;;;5002066;28;20511;-83
2023/02/18 09:43:30;;;;;;;68.15;4.07;;;11.40;99.90;;;;;;5001220;28;20150;-83
2023/02/18 09:45:59;;;;;;;74.47;4.65;;;11.40;99.90;;;;;;4999516;28;20171;-82
2023/02/18 09:48:31;;;;;;;67.28;4.53;;;11.40;99.90;;;;;;5072794;23;20180;-83
2023/02/18 09:51:19;;;;;;;66.63;3.80;;;11.50;99.90;;;;;;5022115;28;20172;-83
2023/02/18 09:53:57;;;;;;;68.00;4.20;;;11.50;99.90;;;;;;5021935;28;20288;-83
2023/02/18 09:57:06;;;;;;;67.32;4.55;;;11.40;99.90;;;;;;5003512;28;20537;-84
2023/02/18 09:59:44;;;;;;;67.90;3.92;;;11.40;99.90;;;;;;4994064;28;20178;-84
2023/02/18 10:02:32;;;;;;;69.68;4.40;;;11.40;99.90;;;;;;5020847;28;20676;-84
2023/02/18 10:04:58;;;;;;;75.15;3.80;;;11.50;99.90;;;;;;5022749;28;20170;-84
2023/02/18 10:07:42;;;;;;;71.22;3.90;;;11.40;99.90;;;;;;5004133;28;20201;-84
2023/02/18 10:10:48;;;;;;;67.28;4.20;;;11.50;99.90;;;;;;5004010;28;20162;-84
2023/02/18 10:13:40;;;;;;;66.07;3.95;;;11.50;99.90;;;;;;5004812;28;20524;-83
2023/02/18 10:16:14;;;;;;;67.75;4.20;;;11.50;99.90;;;;;;5019311;28;20174;-85
2023/02/18 10:18:44;;;;;;;66.53;4.40;;;11.50;99.90;;;;;;5003411;28;20561;-84
2023/02/18 10:21:14;;;;;;;66.00;3.83;;;11.50;99.90;;;;;;5021726;28;20272;-84
2023/02/18 10:23:51;;;;;;;65.68;4.05;;;11.60;99.90;;;;;;5021566;28;20156;-84
2023/02/18 10:26:18;;;;;;;67.03;4.60;;;11.60;99.90;;;;;;5020870;28;20204;-84
2023/02/18 10:28:48;;;;;;;65.90;4.70;;;11.60;99.90;;;;;;5004942;28;20178;-84
2023/02/18 10:31:36;;;;;;;66.97;4.65;;;11.60;99.90;;;;;;5022680;28;20190;-84
2023/02/18 10:34:32;;;;;;;67.00;4.85;;;11.70;99.90;;;;;;5003958;28;20201;-84
2023/02/18 10:37:26;;;;;;;70.40;4.28;;;11.70;99.90;;;;;;5004162;28;20169;-84
2023/02/18 10:40:00;;;;;;;65.07;4.80;;;11.70;99.90;;;;;;5003671;28;20155;-84
2023/02/18 10:42:53;;;;;;;64.90;4.57;;;11.70;99.90;;;;;;5021969;28;20196;-84
2023/02/18 10:45:50;;;;;;;66.03;4.15;;;11.70;99.90;;;;;;5022641;28;20660;-83
2023/02/18 10:49:02;;;;;;;66.25;4.93;;;11.70;99.90;;;;;;5022649;28;20203;-84
2023/02/18 10:51:42;;;;;;;65.85;4.90;;;11.70;99.90;;;;;;5023307;28;20189;-84
2023/02/18 10:57:19;;;;;;;70.22;5.50;;;11.70;99.90;;;;;;5020616;28;20537;-84
2023/02/18 11:00:25;;;;;;;70.68;4.80;;;11.70;99.90;;;;;;5004330;28;20211;-84
2023/02/18 11:03:40;;;;;;;66.20;5.07;;;11.70;99.90;;;;;;4992692;28;20215;-84
2023/02/18 11:06:23;;;;;;;68.03;5.40;;;11.80;99.90;;;;;;4943631;29;20309;-83
2023/02/18 11:08:49;;;;;;;68.82;6.68;;;11.70;99.90;;;;;;4958163;29;20239;-83
2023/02/18 11:11:21;;;;;;;68.80;5.13;;;11.70;99.90;;;;;;4998434;28;20197;-83
2023/02/18 11:13:53;;;;;;;65.25;6.40;;;11.70;99.90;;;;;;5018494;28;20178;-82
2023/02/18 11:16:22;;;;;;;64.95;5.00;;;11.60;99.90;;;;;;5018582;28;20161;-82
2023/02/18 11:18:50;;;;;;;67.00;9.13;;;11.40;99.90;;;;;;5000552;28;20202;-82
2023/02/18 11:21:35;;;;;;;67.93;5.50;;;11.30;99.90;;;;;;4999842;28;20186;-82
2023/02/18 11:24:15;;;;;;;66.10;5.50;;;11.30;99.90;;;;;;5018098;28;20292;-83
2023/02/18 11:26:43;;;;;;;65.88;5.70;;;11.20;99.90;;;;;;5000873;28;20173;-82
2023/02/18 11:29:19;;;;;;;65.13;6.70;;;11.30;99.90;;;;;;5001471;28;20174;-83
2023/02/18 11:31:48;;;;;;;67.88;10.35;;;11.30;99.90;;;;;;5018499;28;20243;-82
2023/02/18 11:34:27;;;;;;;64.90;6.25;;;11.30;99.90;;;;;;5018695;28;20190;-83
2023/02/18 11:36:53;;;;;;;65.72;7.50;;;11.30;99.90;;;;;;4984799;28;20170;-82
2023/02/18 11:39:25;;;;;;;65.35;6.82;;;11.30;99.90;;;;;;5018471;28;20172;-82
2023/02/18 11:41:58;;;;;;;69.32;10.90;;;11.30;99.90;;;;;;4999996;28;20272;-82
2023/02/18 11:44:40;;;;;;;66.53;11.55;;;11.20;99.90;;;;;;5016710;28;20169;-82
2023/02/18 11:47:23;;;;;;;70.32;10.77;;;11.10;99.90;;;;;;5018000;28;20217;-82
2023/02/18 11:50:21;;;;;;;67.65;13.13;;;11.10;99.90;;;;;;5018044;28;20216;-82
2023/02/18 11:52:49;;;;;;;67.05;11.60;;;11.10;99.90;;;;;;5006029;28;20198;-82
2023/02/18 11:55:20;;;;;;;69.15;14.60;;;11.10;99.90;;;;;;5018130;28;20197;-82
2023/02/18 11:58:09;;;;;;;70.70;14.52;;;11.20;99.90;;;;;;5017952;28;20210;-82
2023/02/18 12:00:35;;;;;;;68.30;15.68;;;11.20;99.90;;;;;;5018278;28;20142;-82
2023/02/18 12:03:06;;;;;;;68.60;15.37;;;11.20;99.90;;;;;;5018318;28;20192;-83
2023/02/18 12:05:32;;;;;;;67.97;13.57;;;11.10;99.90;;;;;;5017743;28;20157;-82
2023/02/18 12:08:08;;;;;;;69.30;15.47;;;11.10;99.90;;;;;;5018335;28;20181;-83
2023/02/18 12:10:39;;;;;;;67.80;13.68;;;11.10;99.90;;;;;;5017384;28;20977;-83
2023/02/18 12:13:26;;;;;;;69.43;13.45;;;11.10;99.90;;;;;;5017878;28;20535;-83
2023/02/18 12:16:25;;;;;;;67.82;14.93;;;11.10;99.90;;;;;;5000174;28;20237;-82
2023/02/18 12:18:59;;;;;;;68.72;16.60;;;11.10;99.90;;;;;;5017228;28;20153;-82
2023/02/18 12:21:31;;;;;;;67.80;13.88;;;11.10;99.90;;;;;;5017657;28;20184;-82
2023/02/18 12:24:09;;;;;;;70.35;16.45;;;11.10;99.90;;;;;;5018459;28;20174;-82
2023/02/18 12:27:03;;;;;;;68.22;14.13;;;11.10;99.90;;;;;;5017959;28;20162;-83
2023/02/18 12:29:54;;;;;;;69.25;18.58;;;11.10;99.90;;;;;;5000498;28;20164;-83
2023/02/18 12:32:38;;;;;;;70.00;15.50;;;11.10;99.90;;;;;;5019013;28;20333;-82
2023/02/18 12:35:25;;;;;;;70.55;17.15;;;11.20;99.90;;;;;;5021796;28;20181;-82
2023/02/18 12:37:55;;;;;;;68.65;13.88;;;11.10;99.90;;;;;;5021656;28;20150;-83
2023/02/18 12:40:57;;;;;;;69.50;16.85;;;11.10;99.90;;;;;;5021678;28;20248;-83
2023/02/18 12:43:34;;;;;;;70.43;17.17;;;11.20;99.90;;;;;;4961842;29;20175;-83
2023/02/18 12:46:25;;;;;;;69.60;16.60;;;11.20;99.90;;;;;;4997282;28;20204;-83
2023/02/18 12:49:08;;;;;;;69.72;18.15;;;11.20;99.90;;;;;;5022396;28;20187;-83
2023/02/18 12:51:57;;;;;;;68.60;16.50;;;11.20;99.90;;;;;;5022097;28;20281;-83
2023/02/18 12:54:46;;;;;;;69.93;19.65;;;11.30;99.90;;;;;;5022279;28;20537;-83
2023/02/18 12:57:16;;;;;;;70.15;20.90;;;11.30;99.90;;;;;;5005635;28;20166;-83
2023/02/18 13:00:03;;;;;;;70.47;18.33;;;11.30;99.90;;;;;;5022402;28;20166;-83
2023/02/18 13:02:53;;;;;;;69.78;16.38;;;11.40;99.90;;;;;;5003595;28;20200;-83
2023/02/18 13:05:50;;;;;;;72.10;18.70;;;11.40;99.90;;;;;;5022170;28;20154;-83
2023/02/18 13:08:49;;;;;;;68.70;16.27;;;11.40;99.90;;;;;;4980275;28;20541;-83
2023/02/18 13:11:20;;;;;;;69.72;15.80;;;11.40;99.90;;;;;;5021648;28;20228;-83
2023/02/18 13:14:08;;;;;;;70.95;19.13;;;11.40;99.90;;;;;;5021310;28;20189;-83
2023/02/18 13:16:38;;;;;;;68.82;16.17;;;11.40;99.90;;;;;;5021666;28;20149;-83